Aérodrome :
LOGIN :

S'inscrire | Disclaimer

   EN    FR    IT 

 










Légende :    VFR   VFR Marginal   IFR   IFR Intensif   IFR Très Intensif
Visi : 
Plafond : 
>= 8 km
>= 3000ft
5 à 8 km
1000 à 3000 ft
1500m à 5 km
500 à 1000 ft
800 à 1500m
200 à 500 ft
< 800m
< 200 ft
Symboles :   Orages  Brouillard  Fortes neiges  Fortes précipitations  Vent > 20 kt
SIGMETs :   Divers  Orages  Givrage  Turbulence  Onde Orograph.  Cendres Volcan.







- Altitude de l'aérodrome : 609 ft
- Code IATA : BJZ


LEBZ - Badajoz

DERNIER METAR :
  • 181800Z 06005KT 9999 BKN026 13/13 Q1000

METARs EXPIRÉS :
  • 181700Z 07005KT 9999 DZ BKN010 OVC044 14/13 Q1000
  • 181600Z 08003KT 7000 RA BKN028 OVC040 13/12 Q1001

TAF TAF LEBZ
Valide du 18 à 18h jusqu'au 19 à 18h UTC


181700Z 1818/1918 18005KT 9999 SCT035 TX16/1915Z TN10/1906Z
PROB40
TEMPO 1818/1906 4000 RA BR BKN012
PROB40
TEMPO 1912/1918 4000 SHRA SCT020TCU
Pas de NOTAMs connus pour ce terrain.
2 SIGMETs publiés pour la FIR Madrid (LECM) :
 
Orages noyés dans la masse
LECM SIGMET 9 VALID 181800/182000 LEVA
LECM MADRID FIR/UIR EMBD TS OBS AT 1745Z WI N3751 W00327 - N3549 W00456 - N3546 W002 - N3754 W00132 - N3751 W00327 TOP FL380 MOV NE NC=
Orages noyés dans la masse
LECM SIGMET 8 VALID 181600/181800 LEVA
LECM MADRID FIR/UIR EMBD TS OBS AT 1542Z WI N3551 W00552 - N3747 W00501 - N3758 W00136 - N3552 W00201 - N3551 W00552 TOP FL380 MOV NE NC=



MET'MAP, la Météo Aéronautique d'un coup d'oeil ! - Copyright ORBIFLY Décembre 2007 - Disclaimer

ORBIFLY MET'MAP TEAM :

Programmation & Développement : Alexandra Zaïnal
Conception & Développement : Baudouin d'Aumeries
Co-Programmation & Développement : Marc-Olivier Méhu
Soutien technique & logistique : Manuel Goepfert

Contact : metmap@orbifly.com




SOURCES & CREDITS :

   NOAA